Time;durP1;ratioP1;P1;durP2;ratioP2;P2;SDS_P1;SDS_P2;PMS_P1;PMS_P2;Temp;Humidity;BMP_temperature;BMP_pressure;BME280_temperature;BME280_humidity;BME280_pressure;Samples;Min_cycle;Max_cycle;Signal;HPM_P1;HPM_P2
2021/12/11 00:03:13;;;;;;;;;;;15.40;38.60;;;;;;8366055;28;19920;-49
2021/12/11 00:07:15;;;;;;;;;;;15.40;38.50;;;;;;8366710;28;19924;-48
2021/12/11 00:11:37;;;;;;;;;;;15.50;38.50;;;;;;8366944;28;20381;-48
2021/12/11 00:15:39;;;;;;;;;;;15.50;38.50;;;;;;8366466;28;19917;-49
2021/12/11 00:19:40;;;;;;;;;;;15.50;38.50;;;;;;8366821;28;19913;-48
2021/12/11 00:23:51;;;;;;;;;;;15.50;38.50;;;;;;8366854;28;19919;-49
2021/12/11 00:27:58;;;;;;;;;;;15.50;38.40;;;;;;8366196;28;19917;-47
2021/12/11 00:32:01;;;;;;;;;;;15.50;38.40;;;;;;8366221;28;19931;-47
2021/12/11 00:36:07;;;;;;;;;;;15.50;38.40;;;;;;8365430;28;19925;-48
2021/12/11 00:40:10;;;;;;;;;;;15.50;38.40;;;;;;8366243;28;20000;-49
2021/12/11 00:44:10;;;;;;;;;;;15.50;38.40;;;;;;8366228;28;20336;-49
2021/12/11 00:48:17;;;;;;;;;;;15.50;38.40;;;;;;8365353;28;19917;-48
2021/12/11 00:52:18;;;;;;;;;;;15.50;38.40;;;;;;8365523;28;19925;-47
2021/12/11 00:56:21;;;;;;;;;;;15.50;38.40;;;;;;8365490;28;19924;-48
2021/12/11 01:00:22;;;;;;;;;;;15.50;38.50;;;;;;8365188;28;19924;-49
2021/12/11 01:04:25;;;;;;;;;;;15.50;38.50;;;;;;8365617;28;19916;-49
2021/12/11 01:08:32;;;;;;;;;;;15.50;38.50;;;;;;8365237;28;20312;-49
2021/12/11 01:12:45;;;;;;;;;;;15.50;38.50;;;;;;8364467;28;20397;-49
2021/12/11 01:16:53;;;;;;;;;;;15.40;38.50;;;;;;8364960;28;20020;-48
2021/12/11 01:21:06;;;;;;;;;;;15.40;38.50;;;;;;8364293;28;20295;-48
2021/12/11 01:25:15;;;;;;;;;;;15.40;38.50;;;;;;8364552;28;20357;-49
2021/12/11 01:29:17;;;;;;;;;;;15.40;38.50;;;;;;8364752;28;20015;-49
2021/12/11 01:33:18;;;;;;;;;;;15.40;38.50;;;;;;8363794;28;19925;-50
2021/12/11 01:37:19;;;;;;;;;;;15.40;38.50;;;;;;8364539;28;19949;-50
2021/12/11 01:41:20;;;;;;;;;;;15.40;38.50;;;;;;8364196;28;20000;-48
2021/12/11 01:45:20;;;;;;;;;;;15.40;38.50;;;;;;8363058;28;19917;-50
2021/12/11 01:49:21;;;;;;;;;;;15.40;38.50;;;;;;8364044;28;20333;-48
2021/12/11 01:53:24;;;;;;;;;;;15.40;38.50;;;;;;8363719;28;19924;-48
2021/12/11 01:57:27;;;;;;;;;;;15.40;38.50;;;;;;8363364;28;19970;-48
2021/12/11 02:01:34;;;;;;;;;;;15.40;38.50;;;;;;8363391;28;19921;-49
2021/12/11 02:05:37;;;;;;;;;;;15.40;38.40;;;;;;8363587;28;19924;-48
2021/12/11 02:09:38;;;;;;;;;;;15.50;38.50;;;;;;8341266;28;19920;-49
2021/12/11 02:13:45;;;;;;;;;;;15.50;38.40;;;;;;8359137;28;19925;-49
2021/12/11 02:17:48;;;;;;;;;;;15.50;38.40;;;;;;8366248;28;19921;-49
2021/12/11 02:21:48;;;;;;;;;;;15.50;38.40;;;;;;8362778;28;19916;-49
2021/12/11 02:25:50;;;;;;;;;;;15.50;38.30;;;;;;8363319;28;19917;-48
2021/12/11 02:30:15;;;;;;;;;;;15.50;38.30;;;;;;8362852;28;20321;-49
2021/12/11 02:34:36;;;;;;;;;;;15.50;38.40;;;;;;8370036;28;19937;-48
2021/12/11 02:38:37;;;;;;;;;;;15.50;38.30;;;;;;8362877;28;19921;-48
2021/12/11 02:42:42;;;;;;;;;;;15.50;38.30;;;;;;8362522;28;19917;-50
2021/12/11 02:47:06;;;;;;;;;;;15.50;38.30;;;;;;8362918;28;20298;-50
2021/12/11 02:51:11;;;;;;;;;;;15.50;38.40;;;;;;8333857;28;20006;-50
2021/12/11 02:55:18;;;;;;;;;;;15.50;38.40;;;;;;8363496;28;19913;-50
2021/12/11 02:59:22;;;;;;;;;;;15.50;38.40;;;;;;8368052;28;19921;-48
2021/12/11 03:03:28;;;;;;;;;;;15.50;38.40;;;;;;8368646;28;20349;-49
2021/12/11 03:07:36;;;;;;;;;;;15.50;38.40;;;;;;8369146;28;19924;-52
2021/12/11 03:11:36;;;;;;;;;;;15.50;38.40;;;;;;8369951;28;19928;-50
2021/12/11 03:15:37;;;;;;;;;;;15.40;38.40;;;;;;8368202;28;20552;-48
2021/12/11 03:19:41;;;;;;;;;;;15.40;38.40;;;;;;8368879;28;19974;-50
2021/12/11 03:23:41;;;;;;;;;;;15.50;38.50;;;;;;8368248;28;19917;-49
2021/12/11 03:27:42;;;;;;;;;;;15.40;38.40;;;;;;8368045;28;20011;-49
2021/12/11 03:31:42;;;;;;;;;;;15.40;38.40;;;;;;8368072;28;19964;-49
2021/12/11 03:35:43;;;;;;;;;;;15.40;38.40;;;;;;8368371;28;19913;-48
2021/12/11 03:39:47;;;;;;;;;;;15.40;38.40;;;;;;8367809;28;19917;-49
2021/12/11 03:43:48;;;;;;;;;;;15.40;38.40;;;;;;8367595;28;19924;-48
2021/12/11 03:47:51;;;;;;;;;;;15.40;38.40;;;;;;8367776;28;20262;-48
2021/12/11 03:51:52;;;;;;;;;;;15.40;38.50;;;;;;8367097;28;19931;-48
2021/12/11 03:55:55;;;;;;;;;;;15.40;38.50;;;;;;8367366;28;19913;-51
2021/12/11 03:59:56;;;;;;;;;;;15.40;38.50;;;;;;8367078;28;20373;-49
2021/12/11 04:03:58;;;;;;;;;;;15.40;38.40;;;;;;8367095;28;20007;-49
2021/12/11 04:07:59;;;;;;;;;;;15.40;38.40;;;;;;8366715;28;19917;-49
2021/12/11 04:12:00;;;;;;;;;;;15.50;38.40;;;;;;8366105;28;20024;-49
2021/12/11 04:16:00;;;;;;;;;;;15.50;38.40;;;;;;8367038;28;20328;-49
2021/12/11 04:20:03;;;;;;;;;;;15.50;38.40;;;;;;8366872;28;19913;-48
2021/12/11 04:24:05;;;;;;;;;;;15.50;38.40;;;;;;8366132;28;19952;-48
2021/12/11 04:28:05;;;;;;;;;;;15.50;38.40;;;;;;8366371;28;19924;-48
2021/12/11 04:32:06;;;;;;;;;;;15.50;38.40;;;;;;8366344;28;20287;-49
2021/12/11 04:36:09;;;;;;;;;;;15.50;38.40;;;;;;8365826;28;20404;-47
2021/12/11 04:40:12;;;;;;;;;;;15.60;38.40;;;;;;8366225;28;19923;-48
2021/12/11 04:44:16;;;;;;;;;;;15.60;38.40;;;;;;8365921;28;20393;-48
2021/12/11 04:48:40;;;;;;;;;;;15.60;38.40;;;;;;8365930;28;19921;-49
2021/12/11 04:52:53;;;;;;;;;;;15.60;38.40;;;;;;8365480;28;19932;-48
2021/12/11 05:01:47;;;;;;;;;;;15.60;38.40;;;;;;8366028;28;19967;-49
2021/12/11 05:10:15;;;;;;;;;;;15.60;38.40;;;;;;8310795;28;20290;-48
2021/12/11 05:14:17;;;;;;;;;;;15.50;38.40;;;;;;8360194;28;20374;-49
2021/12/11 05:18:19;;;;;;;;;;;15.60;38.40;;;;;;8364530;28;19923;-47
2021/12/11 05:22:20;;;;;;;;;;;15.50;38.40;;;;;;8363790;28;19913;-48
2021/12/11 05:26:20;;;;;;;;;;;15.50;38.40;;;;;;8364960;28;20277;-48
2021/12/11 05:30:24;;;;;;;;;;;15.50;38.40;;;;;;8364315;28;19916;-49
2021/12/11 05:34:24;;;;;;;;;;;15.50;38.40;;;;;;8364165;28;19931;-49
2021/12/11 05:38:25;;;;;;;;;;;15.50;38.50;;;;;;8364110;28;20348;-50
2021/12/11 05:42:25;;;;;;;;;;;15.50;38.50;;;;;;8363842;28;19973;-49
2021/12/11 05:46:26;;;;;;;;;;;15.50;38.50;;;;;;8364187;28;19916;-49
2021/12/11 05:50:32;;;;;;;;;;;15.50;38.50;;;;;;8364085;28;19924;-49
2021/12/11 05:54:32;;;;;;;;;;;15.50;38.50;;;;;;8363369;28;19925;-49
2021/12/11 05:59:15;;;;;;;;;;;15.50;38.60;;;;;;8363702;28;20012;-49
2021/12/11 06:02:56;;;;;;;;;;;15.50;38.60;;;;;;8358502;28;20076;-50
2021/12/11 06:06:57;;;;;;;;;;;15.50;38.60;;;;;;8363766;28;19913;-49
2021/12/11 06:10:58;;;;;;;;;;;15.50;38.60;;;;;;8362347;28;20326;-51
2021/12/11 06:14:59;;;;;;;;;;;15.50;38.60;;;;;;8362920;28;19917;-49
2021/12/11 06:19:03;;;;;;;;;;;15.50;38.60;;;;;;8363374;28;19939;-53
2021/12/11 06:23:04;;;;;;;;;;;15.50;38.60;;;;;;8363239;28;19927;-48
2021/12/11 06:27:05;;;;;;;;;;;15.40;38.60;;;;;;8362805;28;20282;-48
2021/12/11 06:31:05;;;;;;;;;;;15.40;38.60;;;;;;8363632;28;19921;-49
2021/12/11 06:35:14;;;;;;;;;;;15.40;38.60;;;;;;8370062;28;20433;-49
2021/12/11 06:39:16;;;;;;;;;;;15.40;38.60;;;;;;8369385;28;19924;-50
2021/12/11 06:43:16;;;;;;;;;;;15.40;38.60;;;;;;8369547;28;19921;-49
2021/12/11 06:47:17;;;;;;;;;;;15.40;38.60;;;;;;8369544;28;20273;-49
2021/12/11 06:51:17;;;;;;;;;;;15.40;38.60;;;;;;8369758;28;19921;-50
2021/12/11 06:55:19;;;;;;;;;;;15.40;38.60;;;;;;8369545;28;19924;-49
2021/12/11 06:59:19;;;;;;;;;;;15.40;38.60;;;;;;8368056;28;19923;-48
2021/12/11 07:03:20;;;;;;;;;;;15.40;38.70;;;;;;8368665;28;20011;-49
2021/12/11 07:07:25;;;;;;;;;;;15.40;38.70;;;;;;8368937;28;19913;-49
2021/12/11 07:11:25;;;;;;;;;;;15.40;38.70;;;;;;8369085;28;20015;-49
2021/12/11 07:15:26;;;;;;;;;;;15.40;38.70;;;;;;8368177;28;19924;-53
2021/12/11 07:19:26;;;;;;;;;;;15.40;38.70;;;;;;8368412;28;19987;-52
2021/12/11 07:23:27;;;;;;;;;;;15.40;38.60;;;;;;8368342;28;20385;-49
2021/12/11 07:27:29;;;;;;;;;;;15.40;38.70;;;;;;8368040;28;20333;-49
2021/12/11 07:31:29;;;;;;;;;;;15.40;38.70;;;;;;8368527;28;19921;-49
2021/12/11 07:35:31;;;;;;;;;;;15.40;38.70;;;;;;8368158;28;19916;-50
2021/12/11 07:39:32;;;;;;;;;;;15.40;38.70;;;;;;8367371;28;19917;-50
2021/12/11 07:43:32;;;;;;;;;;;15.40;38.70;;;;;;8366663;28;19970;-50
2021/12/11 07:47:33;;;;;;;;;;;15.40;38.70;;;;;;8367758;28;19970;-50
2021/12/11 07:51:35;;;;;;;;;;;15.40;38.70;;;;;;8367310;28;19975;-49
2021/12/11 07:55:35;;;;;;;;;;;15.40;38.70;;;;;;8367316;28;19917;-49
2021/12/11 07:59:36;;;;;;;;;;;15.40;38.70;;;;;;8367561;28;20281;-48
2021/12/11 08:03:37;;;;;;;;;;;15.40;38.70;;;;;;8362801;28;19920;-49
2021/12/11 08:07:38;;;;;;;;;;;15.40;38.80;;;;;;8367195;28;20297;-49
2021/12/11 08:11:39;;;;;;;;;;;15.40;38.70;;;;;;8367153;28;20370;-51
2021/12/11 08:15:41;;;;;;;;;;;15.40;38.70;;;;;;8366166;28;19916;-49
2021/12/11 08:19:41;;;;;;;;;;;15.40;38.70;;;;;;8366553;28;19917;-50
2021/12/11 08:23:44;;;;;;;;;;;15.40;38.70;;;;;;8366666;28;19940;-50
2021/12/11 08:27:45;;;;;;;;;;;15.40;38.80;;;;;;8366011;28;19920;-50
2021/12/11 08:31:47;;;;;;;;;;;15.40;38.70;;;;;;8366439;28;19939;-51
2021/12/11 08:35:48;;;;;;;;;;;15.40;38.70;;;;;;8366007;28;19916;-50
2021/12/11 08:39:49;;;;;;;;;;;15.40;38.80;;;;;;8365502;28;20015;-49
2021/12/11 08:43:56;;;;;;;;;;;15.40;38.70;;;;;;8366019;28;20362;-49
2021/12/11 08:47:59;;;;;;;;;;;15.40;38.70;;;;;;8367951;28;20003;-50
2021/12/11 08:52:09;;;;;;;;;;;15.40;38.70;;;;;;8365733;28;19920;-49
2021/12/11 08:56:10;;;;;;;;;;;15.40;38.70;;;;;;8365303;28;19916;-51
2021/12/11 09:00:15;;;;;;;;;;;15.40;38.70;;;;;;8365093;28;19924;-50
2021/12/11 09:04:27;;;;;;;;;;;15.40;38.80;;;;;;8365254;28;19919;-49
2021/12/11 09:08:30;;;;;;;;;;;15.40;38.70;;;;;;8365057;28;19917;-51
2021/12/11 09:12:37;;;;;;;;;;;15.40;38.70;;;;;;8364755;28;19925;-52
2021/12/11 09:16:44;;;;;;;;;;;15.40;38.70;;;;;;8364905;28;19920;-51
2021/12/11 09:20:54;;;;;;;;;;;15.40;38.70;;;;;;8364553;28;19958;-51
2021/12/11 09:24:58;;;;;;;;;;;15.40;38.80;;;;;;8364655;28;20000;-48
2021/12/11 09:29:03;;;;;;;;;;;15.40;38.80;;;;;;8364531;28;19917;-48
2021/12/11 09:33:06;;;;;;;;;;;15.40;38.80;;;;;;8364169;28;19968;-49
2021/12/11 09:37:07;;;;;;;;;;;15.40;38.80;;;;;;8364334;28;20175;-51
2021/12/11 09:41:20;;;;;;;;;;;15.40;38.80;;;;;;8364241;28;19924;-51
2021/12/11 09:45:23;;;;;;;;;;;15.40;38.70;;;;;;8363520;28;20008;-49
2021/12/11 09:49:25;;;;;;;;;;;15.40;38.70;;;;;;8364082;28;19921;-50
2021/12/11 09:53:28;;;;;;;;;;;15.40;38.80;;;;;;8363730;28;19921;-50
2021/12/11 09:57:30;;;;;;;;;;;15.40;38.70;;;;;;8363589;28;20400;-50
2021/12/11 10:01:33;;;;;;;;;;;15.40;38.70;;;;;;8363884;28;19921;-49
2021/12/11 10:06:07;;;;;;;;;;;15.40;38.70;;;;;;8363336;28;19999;-51
2021/12/11 10:10:18;;;;;;;;;;;15.40;38.70;;;;;;8362990;28;19944;-51
2021/12/11 10:14:21;;;;;;;;;;;15.40;38.80;;;;;;8363094;28;19943;-50
2021/12/11 10:18:24;;;;;;;;;;;15.40;38.80;;;;;;8362944;28;20362;-50
2021/12/11 10:22:26;;;;;;;;;;;15.40;38.70;;;;;;8363269;28;19917;-51
2021/12/11 10:26:27;;;;;;;;;;;15.40;38.70;;;;;;8363192;28;19976;-53
2021/12/11 10:30:30;;;;;;;;;;;15.40;38.70;;;;;;8362721;28;20370;-53
2021/12/11 10:34:31;;;;;;;;;;;15.50;38.80;;;;;;8362868;28;19925;-54
2021/12/11 10:38:32;;;;;;;;;;;15.50;38.80;;;;;;8363045;28;19999;-49
2021/12/11 10:42:32;;;;;;;;;;;15.50;38.80;;;;;;8362672;28;19916;-50
2021/12/11 10:46:39;;;;;;;;;;;15.50;38.80;;;;;;8362486;28;20321;-51
2021/12/11 10:50:43;;;;;;;;;;;15.50;38.80;;;;;;8362456;28;19913;-52
2021/12/11 10:54:43;;;;;;;;;;;15.50;38.80;;;;;;8362083;28;20038;-51
2021/12/11 10:58:52;;;;;;;;;;;15.50;38.80;;;;;;8362444;28;20362;-49
2021/12/11 11:02:53;;;;;;;;;;;15.50;38.80;;;;;;8362194;28;19917;-50
2021/12/11 11:06:54;;;;;;;;;;;15.50;38.80;;;;;;8362537;28;19917;-50
2021/12/11 11:10:57;;;;;;;;;;;15.50;38.90;;;;;;8361132;28;19916;-50
2021/12/11 11:14:57;;;;;;;;;;;15.50;38.90;;;;;;8362116;28;20401;-50
2021/12/11 11:18:58;;;;;;;;;;;15.60;39.00;;;;;;8365424;28;19963;-52
2021/12/11 11:22:59;;;;;;;;;;;15.60;38.90;;;;;;8369277;28;19916;-50
2021/12/11 11:27:01;;;;;;;;;;;15.70;38.80;;;;;;8368187;28;19920;-54
2021/12/11 11:31:04;;;;;;;;;;;15.70;38.80;;;;;;8368451;28;19924;-48
2021/12/11 11:35:08;;;;;;;;;;;15.70;38.70;;;;;;8368892;28;19917;-50
2021/12/11 11:39:10;;;;;;;;;;;15.80;38.80;;;;;;8367147;28;20411;-53
2021/12/11 11:43:11;;;;;;;;;;;15.70;38.80;;;;;;8368100;28;19917;-53
2021/12/11 11:47:13;;;;;;;;;;;15.70;38.70;;;;;;8367635;28;20370;-53
2021/12/11 11:51:17;;;;;;;;;;;15.70;38.70;;;;;;8367078;28;19925;-52
2021/12/11 11:55:24;;;;;;;;;;;15.80;38.80;;;;;;8367179;28;19940;-49
2021/12/11 11:59:24;;;;;;;;;;;15.70;38.80;;;;;;8366878;28;19943;-52
2021/12/11 12:03:28;;;;;;;;;;;15.70;38.70;;;;;;8366998;28;19917;-51
2021/12/11 12:07:30;;;;;;;;;;;15.80;38.70;;;;;;8366967;28;19997;-50
2021/12/11 12:11:31;;;;;;;;;;;15.70;38.70;;;;;;8366690;28;19921;-51
2021/12/11 12:15:33;;;;;;;;;;;15.80;38.90;;;;;;8366243;28;20366;-50
2021/12/11 12:19:34;;;;;;;;;;;15.70;38.70;;;;;;8366745;28;19921;-50
2021/12/11 12:23:35;;;;;;;;;;;15.80;38.80;;;;;;8366988;28;19941;-50
2021/12/11 12:27:38;;;;;;;;;;;15.70;38.70;;;;;;8365989;28;19917;-50
2021/12/11 12:31:40;;;;;;;;;;;15.80;38.70;;;;;;8364608;28;20408;-50
2021/12/11 12:35:41;;;;;;;;;;;15.70;38.60;;;;;;8365364;28;19917;-50
2021/12/11 12:39:44;;;;;;;;;;;15.70;39.00;;;;;;8365561;28;20374;-49
2021/12/11 12:44:16;;;;;;;;;;;15.70;39.00;;;;;;8366379;28;20054;-50
2021/12/11 12:48:16;;;;;;;;;;;15.70;38.90;;;;;;8365302;28;20345;-50
2021/12/11 12:52:18;;;;;;;;;;;15.70;38.90;;;;;;8365595;28;19990;-49
2021/12/11 12:56:26;;;;;;;;;;;15.70;38.90;;;;;;8365453;28;20281;-52
2021/12/11 13:00:45;;;;;;;;;;;15.70;38.80;;;;;;8365021;28;20444;-51
2021/12/11 13:04:49;;;;;;;;;;;15.70;38.90;;;;;;8365223;28;19913;-49
2021/12/11 13:08:53;;;;;;;;;;;15.70;39.00;;;;;;8364850;28;19917;-48
2021/12/11 13:12:54;;;;;;;;;;;15.70;39.00;;;;;;8364881;28;19931;-50
2021/12/11 13:17:06;;;;;;;;;;;15.70;39.00;;;;;;8364713;28;19917;-50
2021/12/11 13:21:13;;;;;;;;;;;15.70;38.90;;;;;;8364255;28;20034;-51
2021/12/11 13:25:19;;;;;;;;;;;15.70;38.90;;;;;;8364657;28;20405;-50
2021/12/11 13:29:23;;;;;;;;;;;15.70;38.90;;;;;;8368709;28;19917;-51
2021/12/11 13:33:24;;;;;;;;;;;15.70;38.90;;;;;;8363873;28;19929;-49
2021/12/11 13:37:26;;;;;;;;;;;15.70;38.90;;;;;;8364336;28;20332;-48
2021/12/11 13:41:33;;;;;;;;;;;15.70;38.90;;;;;;8363241;28;19920;-50
2021/12/11 13:45:34;;;;;;;;;;;15.70;38.90;;;;;;8363568;28;19995;-49
2021/12/11 13:49:35;;;;;;;;;;;15.70;38.90;;;;;;8364513;28;19924;-48
2021/12/11 13:53:36;;;;;;;;;;;15.70;38.90;;;;;;8363754;28;20405;-49
2021/12/11 13:57:37;;;;;;;;;;;15.70;38.90;;;;;;8363282;28;19917;-50
2021/12/11 14:01:38;;;;;;;;;;;15.70;38.90;;;;;;8358308;28;19929;-49
2021/12/11 14:05:39;;;;;;;;;;;15.70;38.90;;;;;;8336808;28;19917;-48
2021/12/11 14:09:52;;;;;;;;;;;15.70;38.90;;;;;;8363310;28;19913;-49
2021/12/11 14:13:52;;;;;;;;;;;15.70;38.90;;;;;;8363284;28;20012;-50
2021/12/11 14:17:52;;;;;;;;;;;15.70;38.90;;;;;;8362919;28;19940;-49
2021/12/11 14:21:54;;;;;;;;;;;15.70;38.90;;;;;;8363334;28;19992;-50
2021/12/11 14:25:55;;;;;;;;;;;15.70;38.90;;;;;;8362970;28;19917;-49
2021/12/11 14:29:56;;;;;;;;;;;15.70;39.00;;;;;;8362781;28;19917;-52
2021/12/11 14:33:57;;;;;;;;;;;15.70;38.90;;;;;;8362856;28;19928;-50
2021/12/11 14:37:58;;;;;;;;;;;15.70;39.00;;;;;;8363131;28;19917;-49
2021/12/11 14:41:59;;;;;;;;;;;15.70;39.00;;;;;;8362318;28;19912;-50
2021/12/11 14:46:00;;;;;;;;;;;15.70;39.00;;;;;;8362745;28;20284;-49
2021/12/11 14:50:00;;;;;;;;;;;15.70;39.00;;;;;;8363078;28;19924;-50
2021/12/11 14:54:03;;;;;;;;;;;15.70;39.00;;;;;;8364498;28;19967;-50
2021/12/11 14:58:04;;;;;;;;;;;15.70;39.10;;;;;;8369395;28;19917;-49
2021/12/11 15:02:07;;;;;;;;;;;15.70;39.10;;;;;;8369483;28;19968;-50
2021/12/11 15:06:08;;;;;;;;;;;15.70;39.00;;;;;;8368473;28;20021;-50
2021/12/11 15:10:10;;;;;;;;;;;15.70;39.00;;;;;;8369314;28;19913;-50
2021/12/11 15:14:14;;;;;;;;;;;15.70;39.00;;;;;;8368573;28;19967;-49
2021/12/11 15:18:15;;;;;;;;;;;15.70;39.00;;;;;;8368299;28;19917;-49
2021/12/11 15:22:16;;;;;;;;;;;15.70;39.00;;;;;;8368856;28;20298;-52
2021/12/11 15:26:16;;;;;;;;;;;15.70;39.00;;;;;;8368398;28;19917;-49
2021/12/11 15:30:19;;;;;;;;;;;15.70;39.00;;;;;;8367916;28;20384;-49
2021/12/11 15:34:19;;;;;;;;;;;15.70;39.00;;;;;;8368043;28;20038;-49
2021/12/11 15:38:20;;;;;;;;;;;15.70;39.00;;;;;;8368041;28;19931;-52
2021/12/11 15:42:21;;;;;;;;;;;15.60;39.00;;;;;;8367520;28;19917;-53
2021/12/11 15:46:22;;;;;;;;;;;15.70;39.00;;;;;;8368040;28;19924;-51
2021/12/11 15:50:24;;;;;;;;;;;15.70;39.00;;;;;;8368046;28;19920;-49
2021/12/11 15:54:25;;;;;;;;;;;15.60;39.00;;;;;;8366942;28;20462;-50
2021/12/11 15:58:26;;;;;;;;;;;15.60;39.00;;;;;;8367302;28;19917;-52
2021/12/11 16:02:27;;;;;;;;;;;15.70;39.10;;;;;;8367443;28;20382;-51
2021/12/11 16:06:29;;;;;;;;;;;15.70;39.10;;;;;;8364828;28;21301;-50
2021/12/11 16:10:30;;;;;;;;;;;15.70;39.20;;;;;;8366913;28;20321;-52
2021/12/11 16:14:30;;;;;;;;;;;15.70;39.20;;;;;;8366423;28;19924;-50
2021/12/11 16:18:31;;;;;;;;;;;15.70;39.20;;;;;;8365887;28;20377;-52
2021/12/11 16:22:36;;;;;;;;;;;15.80;39.10;;;;;;8366640;28;19917;-51
2021/12/11 16:26:38;;;;;;;;;;;15.80;39.10;;;;;;8367700;28;20391;-50
2021/12/11 16:30:41;;;;;;;;;;;15.80;39.00;;;;;;8366072;28;19913;-50
2021/12/11 16:34:42;;;;;;;;;;;15.80;39.00;;;;;;8366109;28;19972;-52
2021/12/11 16:38:44;;;;;;;;;;;15.80;39.00;;;;;;8366275;28;19924;-49
2021/12/11 16:42:58;;;;;;;;;;;15.80;39.10;;;;;;8365636;28;19917;-51
2021/12/11 16:47:04;;;;;;;;;;;15.80;39.00;;;;;;8366147;28;19917;-53
2021/12/11 16:51:06;;;;;;;;;;;15.80;39.10;;;;;;8365320;28;19920;-49
2021/12/11 16:55:07;;;;;;;;;;;15.80;39.00;;;;;;8365756;28;19924;-53
2021/12/11 16:59:09;;;;;;;;;;;15.80;39.00;;;;;;8365782;28;20369;-52
2021/12/11 17:03:10;;;;;;;;;;;15.80;39.00;;;;;;8364927;28;19925;-48
2021/12/11 17:07:10;;;;;;;;;;;15.80;39.00;;;;;;8355681;28;20027;-48
2021/12/11 17:11:11;;;;;;;;;;;15.80;39.10;;;;;;8365071;28;19947;-50
2021/12/11 17:15:11;;;;;;;;;;;15.80;39.20;;;;;;8364623;28;19913;-50
2021/12/11 17:19:13;;;;;;;;;;;15.80;39.20;;;;;;8364660;28;19917;-49
2021/12/11 17:23:14;;;;;;;;;;;15.80;39.20;;;;;;8364606;28;19916;-53
2021/12/11 17:27:15;;;;;;;;;;;15.80;39.10;;;;;;8364416;28;20313;-49
2021/12/11 17:31:17;;;;;;;;;;;15.80;39.20;;;;;;8364490;28;20378;-49
2021/12/11 17:35:17;;;;;;;;;;;15.70;39.10;;;;;;8364456;28;19917;-52
2021/12/11 17:39:20;;;;;;;;;;;15.70;39.10;;;;;;8363840;28;20336;-50
2021/12/11 17:43:21;;;;;;;;;;;15.70;39.10;;;;;;8364456;28;19917;-52
2021/12/11 17:47:23;;;;;;;;;;;15.80;39.20;;;;;;8364323;28;19924;-50
2021/12/11 17:51:25;;;;;;;;;;;15.70;39.10;;;;;;8363800;28;20011;-51
2021/12/11 17:55:27;;;;;;;;;;;15.80;39.30;;;;;;8363837;28;19924;-51
2021/12/11 17:59:31;;;;;;;;;;;15.70;39.30;;;;;;8364057;28;20358;-49
2021/12/11 18:03:31;;;;;;;;;;;15.70;39.30;;;;;;8362870;28;19962;-52
2021/12/11 18:07:41;;;;;;;;;;;15.70;39.30;;;;;;8363837;28;19985;-49
2021/12/11 18:11:46;;;;;;;;;;;15.70;39.20;;;;;;8363533;28;19921;-51
2021/12/11 18:15:55;;;;;;;;;;;15.70;39.20;;;;;;8363214;28;19913;-51
2021/12/11 18:20:15;;;;;;;;;;;15.70;39.10;;;;;;8363229;28;20365;-49
2021/12/11 18:24:17;;;;;;;;;;;15.70;39.10;;;;;;8362776;28;20306;-50
2021/12/11 18:28:17;;;;;;;;;;;15.70;39.10;;;;;;8362713;28;19962;-51
2021/12/11 18:32:19;;;;;;;;;;;15.70;39.10;;;;;;8363125;28;19936;-50
2021/12/11 18:36:22;;;;;;;;;;;15.70;39.10;;;;;;8362734;28;20361;-49
2021/12/11 18:40:28;;;;;;;;;;;15.70;39.10;;;;;;8363156;28;19916;-52
2021/12/11 18:44:29;;;;;;;;;;;15.70;39.10;;;;;;8362957;28;19951;-51
2021/12/11 18:48:31;;;;;;;;;;;15.70;39.20;;;;;;8362445;28;20505;-51
2021/12/11 18:52:35;;;;;;;;;;;15.70;39.10;;;;;;8362809;28;20306;-52
2021/12/11 18:56:38;;;;;;;;;;;15.70;39.10;;;;;;8363055;28;19967;-52
2021/12/11 19:00:42;;;;;;;;;;;15.70;39.20;;;;;;8362412;28;19924;-51
2021/12/11 19:04:45;;;;;;;;;;;15.70;39.10;;;;;;8362637;28;20381;-50
2021/12/11 19:08:46;;;;;;;;;;;15.70;39.20;;;;;;8362628;28;19952;-52
2021/12/11 19:12:46;;;;;;;;;;;15.70;39.20;;;;;;8361978;28;20333;-51
2021/12/11 19:16:47;;;;;;;;;;;15.70;39.20;;;;;;8362645;28;19913;-49
2021/12/11 19:20:50;;;;;;;;;;;15.70;39.20;;;;;;8362381;28;20024;-52
2021/12/11 19:24:51;;;;;;;;;;;15.70;39.20;;;;;;8362335;28;19917;-53
2021/12/11 19:28:56;;;;;;;;;;;15.70;39.20;;;;;;8362192;28;19920;-54
2021/12/11 19:32:57;;;;;;;;;;;15.70;39.70;;;;;;8360456;28;19929;-53
2021/12/11 19:36:58;;;;;;;;;;;15.70;39.20;;;;;;8362260;28;19946;-51
2021/12/11 19:40:59;;;;;;;;;;;15.70;39.20;;;;;;8364821;28;19917;-51
2021/12/11 19:45:00;;;;;;;;;;;15.70;39.20;;;;;;8367415;28;19912;-50
2021/12/11 19:49:00;;;;;;;;;;;15.70;39.20;;;;;;8368026;28;20313;-52
2021/12/11 19:53:01;;;;;;;;;;;15.70;39.20;;;;;;8367512;28;19921;-54
2021/12/11 19:57:02;;;;;;;;;;;15.70;39.20;;;;;;8367239;28;19971;-52
2021/12/11 20:01:10;;;;;;;;;;;15.70;39.20;;;;;;8366912;28;20290;-52
2021/12/11 20:05:14;;;;;;;;;;;15.70;39.20;;;;;;8357942;28;20011;-52
2021/12/11 20:09:20;;;;;;;;;;;15.70;39.20;;;;;;8366692;28;20328;-50
2021/12/11 20:13:27;;;;;;;;;;;15.70;39.20;;;;;;8366990;28;19920;-50
2021/12/11 20:17:29;;;;;;;;;;;15.70;39.30;;;;;;8367041;28;19966;-50
2021/12/11 20:21:34;;;;;;;;;;;15.70;39.20;;;;;;8366582;28;20289;-49
2021/12/11 20:25:35;;;;;;;;;;;15.70;39.30;;;;;;8366612;28;19924;-52
2021/12/11 20:29:39;;;;;;;;;;;15.70;39.30;;;;;;8366659;28;19916;-51
2021/12/11 20:33:39;;;;;;;;;;;15.70;39.20;;;;;;8365755;28;19928;-50
2021/12/11 20:37:40;;;;;;;;;;;15.70;39.20;;;;;;8366546;28;20310;-49
2021/12/11 20:41:44;;;;;;;;;;;15.70;39.30;;;;;;8366343;28;19913;-50
2021/12/11 20:45:47;;;;;;;;;;;15.70;39.20;;;;;;8365623;28;20063;-51
2021/12/11 20:49:50;;;;;;;;;;;15.70;39.20;;;;;;8366021;28;19917;-50
2021/12/11 20:53:52;;;;;;;;;;;15.70;39.20;;;;;;8364886;28;19925;-52
2021/12/11 20:57:55;;;;;;;;;;;15.70;39.30;;;;;;8365606;28;19913;-51
2021/12/11 21:01:58;;;;;;;;;;;15.70;39.30;;;;;;8364773;28;19921;-52
2021/12/11 21:06:18;;;;;;;;;;;15.70;39.40;;;;;;8364804;28;19927;-52
2021/12/11 21:10:35;;;;;;;;;;;15.70;39.40;;;;;;8364747;28;19946;-50
2021/12/11 21:14:35;;;;;;;;;;;15.80;39.40;;;;;;8365037;28;19925;-52
2021/12/11 21:18:38;;;;;;;;;;;15.80;39.30;;;;;;8364576;28;19967;-53
2021/12/11 21:22:43;;;;;;;;;;;15.80;39.20;;;;;;8364977;28;19917;-49
2021/12/11 21:26:44;;;;;;;;;;;15.80;39.20;;;;;;8364833;28;20326;-49
2021/12/11 21:30:47;;;;;;;;;;;15.80;39.10;;;;;;8364262;28;19916;-51
2021/12/11 21:34:49;;;;;;;;;;;15.90;39.20;;;;;;8364348;28;19924;-52
2021/12/11 21:38:52;;;;;;;;;;;15.80;39.10;;;;;;8363890;28;19916;-49
2021/12/11 21:42:55;;;;;;;;;;;15.80;39.00;;;;;;8364486;28;19916;-50
2021/12/11 21:46:59;;;;;;;;;;;15.80;39.00;;;;;;8364268;28;20011;-53
2021/12/11 21:51:02;;;;;;;;;;;15.80;39.10;;;;;;8363564;28;19917;-53
2021/12/11 21:55:08;;;;;;;;;;;15.80;39.10;;;;;;8363873;28;19924;-51
2021/12/11 21:59:13;;;;;;;;;;;15.80;39.10;;;;;;8364099;28;20282;-53
2021/12/11 22:03:19;;;;;;;;;;;15.80;39.20;;;;;;8362579;28;19963;-50
2021/12/11 22:07:23;;;;;;;;;;;15.70;39.10;;;;;;8363871;28;19975;-49
2021/12/11 22:11:26;;;;;;;;;;;15.70;39.10;;;;;;8363477;28;19924;-50
2021/12/11 22:15:29;;;;;;;;;;;15.80;39.10;;;;;;8363096;28;19924;-52
2021/12/11 22:19:31;;;;;;;;;;;15.80;39.10;;;;;;8362203;28;20011;-51
2021/12/11 22:23:33;;;;;;;;;;;15.70;39.00;;;;;;8363405;28;19999;-50
2021/12/11 22:27:36;;;;;;;;;;;15.70;39.00;;;;;;8363126;28;20327;-53
2021/12/11 22:31:39;;;;;;;;;;;15.70;39.00;;;;;;8363428;28;19931;-50
2021/12/11 22:35:41;;;;;;;;;;;15.70;39.00;;;;;;8363090;28;19916;-50
2021/12/11 22:39:43;;;;;;;;;;;15.70;39.10;;;;;;8362544;28;19924;-50
2021/12/11 22:43:50;;;;;;;;;;;15.70;39.10;;;;;;8363277;28;19959;-51
2021/12/11 22:47:51;;;;;;;;;;;15.70;39.10;;;;;;8362829;28;19919;-51
2021/12/11 22:51:54;;;;;;;;;;;15.70;39.00;;;;;;8361651;28;19924;-50
2021/12/11 22:55:54;;;;;;;;;;;15.70;39.10;;;;;;8361392;28;19916;-52
2021/12/11 22:59:56;;;;;;;;;;;15.70;39.00;;;;;;8362517;28;19951;-51
2021/12/11 23:03:59;;;;;;;;;;;15.70;39.00;;;;;;8361142;28;20012;-49
2021/12/11 23:08:00;;;;;;;;;;;15.70;39.00;;;;;;8362909;28;19913;-52
2021/12/11 23:12:04;;;;;;;;;;;15.70;39.10;;;;;;8362162;28;19929;-51
2021/12/11 23:16:09;;;;;;;;;;;15.70;39.00;;;;;;8367104;28;19921;-52
2021/12/11 23:20:15;;;;;;;;;;;15.70;39.10;;;;;;8368856;28;19970;-51
2021/12/11 23:24:22;;;;;;;;;;;15.70;39.20;;;;;;8367866;28;19924;-53
2021/12/11 23:28:32;;;;;;;;;;;15.60;39.10;;;;;;8368690;28;19917;-50
2021/12/11 23:32:34;;;;;;;;;;;15.70;39.20;;;;;;8368463;28;20270;-50
2021/12/11 23:36:38;;;;;;;;;;;15.70;39.10;;;;;;8367828;28;19924;-51
2021/12/11 23:40:42;;;;;;;;;;;15.70;39.10;;;;;;8368254;28;19952;-50
2021/12/11 23:44:44;;;;;;;;;;;15.70;39.10;;;;;;8367955;28;20015;-48